Time,TemperatureF,DewpointF,PressureIn,WindDirection,WindDirectionDegrees,WindSpeedMPH,WindSpeedGustMPH,Humidity,HourlyPrecipIn,Conditions,Clouds,dailyrainin,SoftwareType,DateUTC
2013-07-24 00:03:00,62.2,58.3,29.94,ENE,71,0.3,1.1,87,0.00,RA,,0.00,WeatherDisplay:10.37,2013-07-24 05:03:00,
2013-07-24 00:08:00,62.0,58.1,29.94,ENE,72,1.3,2.3,87,0.00,RA,,0.00,WeatherDisplay:10.37,2013-07-24 05:08:00,
2013-07-24 00:13:00,62.0,58.1,29.94,East,89,1.7,3.5,87,0.00,,,0.00,WeatherDisplay:10.37,2013-07-24 05:13:00,
2013-07-24 00:18:00,62.1,58.2,29.94,East,82,2.0,3.5,87,0.00,,,0.00,WeatherDisplay:10.37,2013-07-24 05:18:00,
2013-07-24 00:23:00,62.0,57.8,29.94,East,82,1.9,3.5,86,0.00,,,0.00,WeatherDisplay:10.37,2013-07-24 05:23:00,
2013-07-24 00:28:00,61.8,57.9,29.94,East,96,1.8,3.5,87,0.00,,,0.00,WeatherDisplay:10.37,2013-07-24 05:28:00,
2013-07-24 00:33:00,61.7,57.8,29.94,East,82,1.7,2.3,87,0.00,,,0.00,WeatherDisplay:10.37,2013-07-24 05:33:00,
2013-07-24 00:38:00,61.6,57.7,29.94,ENE,77,1.1,2.3,87,0.00,,,0.00,WeatherDisplay:10.37,2013-07-24 05:38:00,
2013-07-24 00:43:00,61.4,57.8,29.94,East,82,1.0,1.1,88,0.00,,,0.00,WeatherDisplay:10.37,2013-07-24 05:43:00,
2013-07-24 00:48:00,61.3,57.7,29.94,ENE,60,1.9,2.3,88,0.00,,,0.00,WeatherDisplay:10.37,2013-07-24 05:48:00,
2013-07-24 00:53:00,61.4,57.5,29.94,NE,55,1.8,3.5,87,0.00,,,0.00,WeatherDisplay:10.37,2013-07-24 05:53:00,
2013-07-24 00:58:00,61.3,57.7,29.94,ENE,76,0.0,1.1,88,0.00,,,0.00,WeatherDisplay:10.37,2013-07-24 05:58:00,
2013-07-24 01:03:00,60.6,57.0,29.94,ESE,115,0.0,1.1,88,0.00,,,0.00,WeatherDisplay:10.37,2013-07-24 06:03:00,
2013-07-24 01:08:00,59.7,56.8,29.94,ESE,115,0.0,1.1,90,0.00,,,0.00,WeatherDisplay:10.37,2013-07-24 06:08:00,
2013-07-24 01:13:00,59.4,57.1,29.95,ESE,121,0.4,1.1,92,0.00,,,0.00,WeatherDisplay:10.37,2013-07-24 06:13:00,
2013-07-24 01:18:00,59.4,57.1,29.95,ESE,120,0.0,1.1,92,0.00,,,0.00,WeatherDisplay:10.37,2013-07-24 06:18:00,
2013-07-24 01:23:00,59.5,57.2,29.94,ESE,120,0.0,0.0,92,0.00,,,0.00,WeatherDisplay:10.37,2013-07-24 06:23:00,
2013-07-24 01:28:00,59.3,56.7,29.94,ESE,120,0.0,0.0,91,0.00,,,0.00,WeatherDisplay:10.37,2013-07-24 06:28:00,
2013-07-24 01:33:00,59.3,56.7,29.95,ESE,120,0.0,0.0,91,0.00,,,0.00,WeatherDisplay:10.37,2013-07-24 06:33:00,
2013-07-24 01:38:00,59.3,57.0,29.95,ESE,120,0.0,0.0,92,0.00,,,0.00,WeatherDisplay:10.37,2013-07-24 06:38:00,
2013-07-24 01:43:00,59.5,56.9,29.95,ENE,76,1.5,2.3,91,0.00,,,0.00,WeatherDisplay:10.37,2013-07-24 06:43:00,
2013-07-24 01:48:00,59.5,56.9,29.95,East,81,1.1,2.3,91,0.00,,,0.00,WeatherDisplay:10.37,2013-07-24 06:48:00,
2013-07-24 01:53:00,59.5,56.9,29.96,ENE,75,1.3,3.5,91,0.00,,,0.00,WeatherDisplay:10.37,2013-07-24 06:53:00,
2013-07-24 01:58:00,59.6,57.0,29.96,ENE,71,1.7,2.3,91,0.00,,,0.00,WeatherDisplay:10.37,2013-07-24 06:58:00,
2013-07-24 02:03:00,59.7,56.8,29.96,ENE,74,1.8,3.5,90,0.00,,,0.00,WeatherDisplay:10.37,2013-07-24 07:03:00,
2013-07-24 02:08:00,59.7,56.8,29.97,ENE,77,0.0,0.0,90,0.00,,,0.00,WeatherDisplay:10.37,2013-07-24 07:08:00,
2013-07-24 02:13:00,59.2,56.3,29.96,ENE,77,0.0,0.0,90,0.00,,,0.00,WeatherDisplay:10.37,2013-07-24 07:13:00,
2013-07-24 02:19:00,58.5,55.6,29.96,ENE,77,0.0,0.0,90,0.00,,,0.00,WeatherDisplay:10.37,2013-07-24 07:19:00,
2013-07-24 02:24:00,58.2,55.9,29.96,ENE,77,0.0,0.0,92,0.00,,,0.00,WeatherDisplay:10.37,2013-07-24 07:24:00,
2013-07-24 02:29:00,57.7,55.4,29.96,ENE,78,0.0,0.0,92,0.00,,,0.00,WeatherDisplay:10.37,2013-07-24 07:29:00,
2013-07-24 02:34:00,57.3,55.3,29.96,ENE,78,0.0,0.0,93,0.00,,,0.00,WeatherDisplay:10.37,2013-07-24 07:34:00,
2013-07-24 02:39:00,56.8,54.8,29.96,ENE,78,0.0,0.0,93,0.00,,,0.00,WeatherDisplay:10.37,2013-07-24 07:39:00,
2013-07-24 02:44:00,57.3,55.9,29.96,ENE,77,0.9,1.1,95,0.00,,,0.00,WeatherDisplay:10.37,2013-07-24 07:44:00,
2013-07-24 02:49:00,57.8,56.1,29.96,ENE,77,0.0,0.0,94,0.00,,,0.00,WeatherDisplay:10.37,2013-07-24 07:49:00,
2013-07-24 02:54:00,57.8,56.1,29.96,ENE,77,0.4,1.1,94,0.00,,,0.00,WeatherDisplay:10.37,2013-07-24 07:54:00,
2013-07-24 02:59:00,57.8,56.1,29.96,ENE,78,0.1,1.1,94,0.00,,,0.00,WeatherDisplay:10.37,2013-07-24 07:59:00,
2013-07-24 03:04:00,57.7,55.7,29.96,ENE,77,0.0,0.0,93,0.00,,,0.00,WeatherDisplay:10.37,2013-07-24 08:04:00,
2013-07-24 03:09:00,57.6,55.9,29.96,ENE,77,0.0,0.0,94,0.00,,,0.00,WeatherDisplay:10.37,2013-07-24 08:09:00,
2013-07-24 03:14:00,57.3,55.3,29.96,ENE,77,0.0,0.0,93,0.00,,,0.00,WeatherDisplay:10.37,2013-07-24 08:14:00,
2013-07-24 03:19:00,56.8,54.8,29.96,ENE,77,0.0,0.0,93,0.00,,,0.00,WeatherDisplay:10.37,2013-07-24 08:19:00,
2013-07-24 03:24:00,56.3,54.3,29.96,ENE,77,0.0,0.0,93,0.00,,,0.00,WeatherDisplay:10.37,2013-07-24 08:24:00,
2013-07-24 03:29:00,55.9,53.9,29.96,ENE,77,0.0,0.0,93,0.00,,,0.00,WeatherDisplay:10.37,2013-07-24 08:29:00,
2013-07-24 03:34:00,55.5,53.8,29.96,ENE,77,0.0,0.0,94,0.00,,,0.00,WeatherDisplay:10.37,2013-07-24 08:34:00,
2013-07-24 03:39:00,55.3,53.6,29.96,ENE,78,0.0,0.0,94,0.00,,,0.00,WeatherDisplay:10.37,2013-07-24 08:39:00,
2013-07-24 03:45:00,55.1,53.7,29.96,ENE,77,0.0,0.0,95,0.00,,,0.00,WeatherDisplay:10.37,2013-07-24 08:45:00,
2013-07-24 03:50:00,55.1,53.7,29.96,ENE,77,0.0,0.0,95,0.00,,,0.00,WeatherDisplay:10.37,2013-07-24 08:50:00,
2013-07-24 03:55:00,55.3,54.2,29.97,ENE,77,0.0,0.0,96,0.00,,,0.00,WeatherDisplay:10.37,2013-07-24 08:55:00,
2013-07-24 04:00:00,55.1,54.0,29.97,ENE,77,0.0,0.0,96,0.00,,,0.00,WeatherDisplay:10.37,2013-07-24 09:00:00,
2013-07-24 04:05:00,54.9,53.8,29.97,ENE,77,0.0,0.0,96,0.00,,,0.00,WeatherDisplay:10.37,2013-07-24 09:05:00,
2013-07-24 04:10:00,54.7,53.6,29.98,ENE,77,0.0,0.0,96,0.00,,,0.00,WeatherDisplay:10.37,2013-07-24 09:10:00,
2013-07-24 04:15:00,54.5,53.4,29.98,ENE,77,0.0,0.0,96,0.00,,,0.00,WeatherDisplay:10.37,2013-07-24 09:15:00,
2013-07-24 04:20:00,54.6,53.5,29.98,ENE,77,0.0,0.0,96,0.00,,,0.00,WeatherDisplay:10.37,2013-07-24 09:20:00,
2013-07-24 04:25:00,54.7,53.6,29.98,ENE,77,0.0,0.0,96,0.00,,,0.00,WeatherDisplay:10.37,2013-07-24 09:25:00,
2013-07-24 04:30:00,54.6,53.5,29.98,ENE,77,0.0,0.0,96,0.00,,,0.00,WeatherDisplay:10.37,2013-07-24 09:30:00,
2013-07-24 04:35:00,54.7,53.9,29.98,ENE,77,0.0,0.0,97,0.00,,,0.00,WeatherDisplay:10.37,2013-07-24 09:35:00,
2013-07-24 04:40:00,54.5,53.4,29.98,ENE,77,0.0,0.0,96,0.00,,,0.00,WeatherDisplay:10.37,2013-07-24 09:40:00,
2013-07-24 04:45:00,54.2,53.1,29.98,ENE,77,0.0,0.0,96,0.00,,,0.00,WeatherDisplay:10.37,2013-07-24 09:45:00,
2013-07-24 04:50:00,54.5,53.7,29.98,ENE,77,1.1,2.3,97,0.00,,,0.00,WeatherDisplay:10.37,2013-07-24 09:50:00,
2013-07-24 04:56:00,55.4,54.8,29.98,ENE,76,1.0,1.1,98,0.00,,,0.00,WeatherDisplay:10.37,2013-07-24 09:56:00,
2013-07-24 05:01:00,55.6,55.0,29.98,ENE,77,0.9,1.1,98,0.00,,,0.00,WeatherDisplay:10.37,2013-07-24 10:01:00,
2013-07-24 05:07:00,55.6,54.8,29.98,ENE,66,1.2,2.3,97,0.00,,,0.00,WeatherDisplay:10.37,2013-07-24 10:07:00,
2013-07-24 05:12:00,55.7,54.9,29.98,ENE,65,0.6,1.1,97,0.00,,,0.00,WeatherDisplay:10.37,2013-07-24 10:12:00,
2013-07-24 05:17:00,55.7,54.9,29.98,ENE,65,0.6,1.1,97,0.00,,,0.00,WeatherDisplay:10.37,2013-07-24 10:17:00,
2013-07-24 05:22:00,55.8,55.0,29.98,ENE,68,1.0,1.1,97,0.00,CLR,,0.00,WeatherDisplay:10.37,2013-07-24 10:22:00,
2013-07-24 05:27:00,55.9,55.1,29.99,ENE,72,1.1,2.3,97,0.00,CLR,,0.00,WeatherDisplay:10.37,2013-07-24 10:27:00,
2013-07-24 05:32:00,55.8,55.0,29.99,ENE,74,0.0,0.0,97,0.00,CLR,,0.00,WeatherDisplay:10.37,2013-07-24 10:32:00,
2013-07-24 05:37:00,55.3,54.2,29.99,ENE,73,0.0,0.0,96,0.00,CLR,,0.00,WeatherDisplay:10.37,2013-07-24 10:37:00,
2013-07-24 05:42:00,54.9,53.8,30.00,ENE,74,0.0,0.0,96,0.00,CLR,,0.00,WeatherDisplay:10.37,2013-07-24 10:42:00,
2013-07-24 05:47:00,54.4,53.3,30.00,ENE,74,0.0,0.0,96,0.00,CLR,,0.00,WeatherDisplay:10.37,2013-07-24 10:47:00,
2013-07-24 05:54:00,53.8,52.7,30.00,ENE,74,0.0,0.0,96,0.00,CLR,,0.00,WeatherDisplay:10.37,2013-07-24 10:54:00,
2013-07-24 05:59:00,53.7,52.6,30.00,ENE,73,0.0,0.0,96,0.00,CLR,,0.00,WeatherDisplay:10.37,2013-07-24 10:59:00,
2013-07-24 06:04:00,53.4,52.6,30.00,ENE,73,0.0,0.0,97,0.00,CLR,,0.00,WeatherDisplay:10.37,2013-07-24 11:04:00,
2013-07-24 06:10:00,53.2,52.4,30.00,ENE,73,0.0,0.0,97,0.00,CLR,,0.00,WeatherDisplay:10.37,2013-07-24 11:10:00,
2013-07-24 06:15:00,53.1,52.3,30.00,ENE,74,0.0,0.0,97,0.00,CLR,,0.00,WeatherDisplay:10.37,2013-07-24 11:15:00,
2013-07-24 06:20:00,53.4,52.6,30.00,ENE,73,0.0,1.1,97,0.00,CLR,,0.00,WeatherDisplay:10.37,2013-07-24 11:20:00,
2013-07-24 06:25:00,54.4,53.8,30.00,ENE,74,0.0,1.1,98,0.00,CLR,,0.00,WeatherDisplay:10.37,2013-07-24 11:25:00,
2013-07-24 06:30:00,54.9,54.3,30.01,ENE,74,0.4,1.1,98,0.00,CLR,,0.00,WeatherDisplay:10.37,2013-07-24 11:30:00,
2013-07-24 06:35:00,55.3,54.7,30.00,ENE,75,1.2,2.3,98,0.00,CLR,,0.00,WeatherDisplay:10.37,2013-07-24 11:35:00,
2013-07-24 06:40:00,55.5,54.9,30.00,ENE,76,1.6,2.3,98,0.00,CLR,,0.00,WeatherDisplay:10.37,2013-07-24 11:40:00,
2013-07-24 06:45:00,55.7,55.1,30.01,ENE,76,0.1,1.1,98,0.00,CLR,,0.00,WeatherDisplay:10.37,2013-07-24 11:45:00,
2013-07-24 06:50:00,55.9,55.3,30.02,ENE,76,0.0,0.0,98,0.00,CLR,,0.00,WeatherDisplay:10.37,2013-07-24 11:50:00,
2013-07-24 06:55:00,56.0,55.4,30.02,ENE,76,0.0,0.0,98,0.00,CLR,,0.00,WeatherDisplay:10.37,2013-07-24 11:55:00,
2013-07-24 07:05:00,56.4,55.8,30.01,ENE,76,0.1,1.0,98,0.00,CLR,,0.00,WeatherDisplay:10.37,2013-07-24 12:05:00,
2013-07-24 07:10:00,56.7,56.1,30.02,ENE,64,0.6,1.1,98,0.00,CLR,,0.00,WeatherDisplay:10.37,2013-07-24 12:10:00,
2013-07-24 07:15:00,56.9,56.3,30.01,East,79,0.8,1.1,98,0.00,CLR,,0.00,WeatherDisplay:10.37,2013-07-24 12:15:00,
2013-07-24 07:20:00,57.4,56.6,30.01,East,82,1.3,3.5,97,0.00,CLR,,0.00,WeatherDisplay:10.37,2013-07-24 12:20:00,
2013-07-24 07:25:00,58.3,57.5,30.01,ENE,65,2.0,3.5,97,0.00,CLR,,0.00,WeatherDisplay:10.37,2013-07-24 12:25:00,
2013-07-24 07:31:00,58.9,57.5,30.02,East,81,1.6,2.3,95,0.00,CLR,,0.00,WeatherDisplay:10.37,2013-07-24 12:31:00,
2013-07-24 07:36:00,59.7,58.0,30.02,East,89,0.9,2.0,94,0.00,CLR,,0.00,WeatherDisplay:10.37,2013-07-24 12:36:00,
2013-07-24 07:41:00,60.3,58.0,30.02,ENE,78,1.4,2.3,92,0.00,CLR,,0.00,WeatherDisplay:10.37,2013-07-24 12:41:00,
2013-07-24 07:46:00,60.7,58.4,30.02,East,85,0.4,2.3,92,0.00,CLR,,0.00,WeatherDisplay:10.37,2013-07-24 12:46:00,
2013-07-24 07:51:00,61.4,59.1,30.02,East,81,0.1,1.1,92,0.00,CLR,,0.00,WeatherDisplay:10.37,2013-07-24 12:51:00,
2013-07-24 07:56:00,62.4,59.1,30.02,ENE,63,0.7,1.1,89,0.00,CLR,,0.00,WeatherDisplay:10.37,2013-07-24 12:56:00,
2013-07-24 08:01:00,62.7,59.1,30.03,East,94,0.3,2.3,88,0.00,CLR,,0.00,WeatherDisplay:10.37,2013-07-24 13:01:00,
2013-07-24 08:06:00,63.3,59.4,30.03,East,79,0.3,1.1,87,0.00,CLR,,0.00,WeatherDisplay:10.37,2013-07-24 13:06:00,
2013-07-24 08:11:00,63.4,59.1,30.03,ENE,75,1.2,2.3,86,0.00,CLR,,0.00,WeatherDisplay:10.37,2013-07-24 13:11:00,
2013-07-24 08:16:00,63.2,58.6,30.03,ENE,65,1.3,3.5,85,0.00,CLR,,0.00,WeatherDisplay:10.37,2013-07-24 13:16:00,
2013-07-24 08:21:00,63.6,59.3,30.03,ENE,64,0.6,3.5,86,0.00,CLR,,0.00,WeatherDisplay:10.37,2013-07-24 13:21:00,
2013-07-24 08:26:00,63.3,58.7,30.03,ENE,74,2.6,3.5,85,0.00,CLR,,0.00,WeatherDisplay:10.37,2013-07-24 13:26:00,
2013-07-24 08:38:00,63.8,59.5,30.02,ENE,71,2.5,3.5,86,0.00,CLR,,0.00,WeatherDisplay:10.37,2013-07-24 13:38:00,
2013-07-24 08:43:00,64.4,59.8,30.02,ENE,75,1.8,3.5,85,0.00,CLR,,0.00,WeatherDisplay:10.37,2013-07-24 13:43:00,
2013-07-24 08:48:00,65.2,59.2,30.02,SE,124,2.6,4.6,81,0.00,CLR,,0.00,WeatherDisplay:10.37,2013-07-24 13:48:00,
2013-07-24 08:53:00,65.8,59.8,30.02,ENE,60,1.9,3.5,81,0.00,CLR,,0.00,WeatherDisplay:10.37,2013-07-24 13:53:00,
2013-07-24 08:58:00,66.4,59.7,30.02,East,94,3.2,5.8,79,0.00,CLR,,0.00,WeatherDisplay:10.37,2013-07-24 13:58:00,
2013-07-24 09:03:00,66.8,60.1,30.02,East,84,1.7,3.5,79,0.00,CLR,,0.00,WeatherDisplay:10.37,2013-07-24 14:03:00,
2013-07-24 09:08:00,67.1,58.9,30.02,NE,56,2.6,5.8,75,0.00,CLR,,0.00,WeatherDisplay:10.37,2013-07-24 14:08:00,
2013-07-24 09:13:00,67.4,59.9,30.03,East,98,1.6,2.3,77,0.00,CLR,,0.00,WeatherDisplay:10.37,2013-07-24 14:13:00,
2013-07-24 09:18:00,67.7,59.5,30.02,East,79,2.2,3.5,75,0.00,CLR,,0.00,WeatherDisplay:10.37,2013-07-24 14:18:00,
2013-07-24 09:24:00,67.7,59.5,30.02,NE,56,2.5,5.0,75,0.00,CLR,,0.00,WeatherDisplay:10.37,2013-07-24 14:24:00,
2013-07-24 09:29:00,67.5,58.9,30.02,ENE,68,0.6,3.5,74,0.00,CLR,,0.00,WeatherDisplay:10.37,2013-07-24 14:29:00,
2013-07-24 09:34:00,68.2,60.0,30.02,ESE,105,0.5,2.3,75,0.00,CLR,,0.00,WeatherDisplay:10.37,2013-07-24 14:34:00,
2013-07-24 09:39:00,67.9,57.4,30.02,NE,56,3.5,5.8,69,0.00,CLR,,0.00,WeatherDisplay:10.37,2013-07-24 14:39:00,
2013-07-24 09:44:00,67.6,59.0,30.02,ENE,74,2.1,3.5,74,0.00,CLR,,0.00,WeatherDisplay:10.37,2013-07-24 14:44:00,
2013-07-24 09:49:00,68.4,59.0,30.02,NE,56,3.3,4.6,72,0.00,CLR,,0.00,WeatherDisplay:10.37,2013-07-24 14:49:00,
2013-07-24 09:54:00,68.3,59.3,30.02,NE,37,2.3,5.0,73,0.00,CLR,,0.00,WeatherDisplay:10.37,2013-07-24 14:54:00,
2013-07-24 09:59:00,68.4,59.0,30.03,ENE,70,5.2,6.0,72,0.00,CLR,,0.00,WeatherDisplay:10.37,2013-07-24 14:59:00,
2013-07-24 10:04:00,68.0,59.0,30.03,NE,56,2.5,3.5,73,0.00,CLR,,0.00,WeatherDisplay:10.37,2013-07-24 15:04:00,
2013-07-24 10:09:00,68.4,59.0,30.03,East,83,0.8,1.1,72,0.00,CLR,,0.00,WeatherDisplay:10.37,2013-07-24 15:09:00,
2013-07-24 10:14:00,69.0,59.2,30.02,East,81,1.6,3.5,71,0.00,CLR,,0.00,WeatherDisplay:10.37,2013-07-24 15:14:00,
2013-07-24 10:19:00,69.2,58.6,30.03,ENE,62,3.6,6.9,69,0.00,CLR,,0.00,WeatherDisplay:10.37,2013-07-24 15:19:00,
2013-07-24 10:24:00,68.8,57.4,30.03,NE,45,4.5,5.8,67,0.00,CLR,,0.00,WeatherDisplay:10.37,2013-07-24 15:24:00,
2013-07-24 10:29:00,68.8,57.8,30.03,NE,54,1.9,9.2,68,0.00,CLR,,0.00,WeatherDisplay:10.37,2013-07-24 15:29:00,
2013-07-24 10:34:00,68.8,57.4,30.03,East,81,4.5,6.9,67,0.00,CLR,,0.00,WeatherDisplay:10.37,2013-07-24 15:34:00,
2013-07-24 10:39:00,69.0,58.4,30.03,NNE,18,2.6,3.5,69,0.00,CLR,,0.00,WeatherDisplay:10.37,2013-07-24 15:39:00,
2013-07-24 10:44:00,69.2,58.2,30.03,NNE,15,2.0,4.6,68,0.00,CLR,,0.00,WeatherDisplay:10.37,2013-07-24 15:44:00,
2013-07-24 10:49:00,69.6,59.4,30.03,NNE,19,2.7,3.5,70,0.00,CLR,,0.00,WeatherDisplay:10.37,2013-07-24 15:49:00,
2013-07-24 10:54:00,70.1,59.5,30.03,NE,53,1.4,3.5,69,0.00,CLR,,0.00,WeatherDisplay:10.37,2013-07-24 15:54:00,
2013-07-24 10:59:00,70.3,58.4,30.03,ENE,61,2.8,5.8,66,0.00,CLR,,0.00,WeatherDisplay:10.37,2013-07-24 15:59:00,
2013-07-24 11:04:00,70.3,58.8,30.03,NE,51,3.0,4.6,67,0.00,CLR,,0.00,WeatherDisplay:10.37,2013-07-24 16:04:00,
2013-07-24 11:09:00,70.2,59.1,30.04,ENE,60,2.1,6.0,68,0.00,CLR,,0.00,WeatherDisplay:10.37,2013-07-24 16:09:00,
2013-07-24 11:14:00,69.4,58.0,30.04,NE,50,2.4,3.5,67,0.00,CLR,,0.00,WeatherDisplay:10.37,2013-07-24 16:14:00,
2013-07-24 11:19:00,70.2,58.7,30.04,NE,56,4.2,8.1,67,0.00,CLR,,0.00,WeatherDisplay:10.37,2013-07-24 16:19:00,
2013-07-24 11:24:00,70.7,60.4,30.05,ENE,76,1.4,3.5,70,0.00,CLR,,0.00,WeatherDisplay:10.37,2013-07-24 16:24:00,
2013-07-24 11:29:00,71.1,58.3,30.04,ENE,70,1.4,2.3,64,0.00,CLR,,0.00,WeatherDisplay:10.37,2013-07-24 16:29:00,
2013-07-24 11:34:00,71.2,59.7,30.04,East,96,2.3,4.6,67,0.00,CLR,,0.00,WeatherDisplay:10.37,2013-07-24 16:34:00,
2013-07-24 11:39:00,71.2,59.7,30.04,NE,41,2.0,3.5,67,0.00,CLR,,0.00,WeatherDisplay:10.37,2013-07-24 16:39:00,
2013-07-24 11:44:00,71.3,58.1,30.04,NW,316,3.0,4.6,63,0.00,CLR,,0.00,WeatherDisplay:10.37,2013-07-24 16:44:00,
2013-07-24 11:49:00,71.4,59.0,30.04,ENE,61,4.2,5.8,65,0.00,CLR,,0.00,WeatherDisplay:10.37,2013-07-24 16:49:00,
2013-07-24 11:54:00,71.7,59.7,30.04,NNW,336,2.4,3.5,66,0.00,CLR,,0.00,WeatherDisplay:10.37,2013-07-24 16:54:00,
2013-07-24 11:59:00,71.8,59.0,30.04,ENE,68,4.2,5.8,64,0.00,CLR,,0.00,WeatherDisplay:10.37,2013-07-24 16:59:00,
2013-07-24 12:04:00,71.8,57.6,30.04,North,11,2.0,3.0,61,0.00,CLR,,0.00,WeatherDisplay:10.37,2013-07-24 17:04:00,
2013-07-24 12:09:00,71.8,59.4,30.05,North,1,1.8,3.5,65,0.00,CLR,,0.00,WeatherDisplay:10.37,2013-07-24 17:09:00,
2013-07-24 12:14:00,71.6,58.3,30.04,NNE,25,2.4,3.5,63,0.00,CLR,,0.00,WeatherDisplay:10.37,2013-07-24 17:14:00,
2013-07-24 12:19:00,71.2,58.8,30.05,WNW,297,0.8,2.0,65,0.00,CLR,,0.00,WeatherDisplay:10.37,2013-07-24 17:19:00,
2013-07-24 12:24:00,71.1,58.7,30.05,WNW,298,1.9,3.5,65,0.00,CLR,,0.00,WeatherDisplay:10.37,2013-07-24 17:24:00,
2013-07-24 12:29:00,72.0,58.3,30.04,ENE,60,3.3,5.8,62,0.00,CLR,,0.00,WeatherDisplay:10.37,2013-07-24 17:29:00,
2013-07-24 12:34:00,71.4,58.1,30.04,NW,326,2.0,4.6,63,0.00,CLR,,0.00,WeatherDisplay:10.37,2013-07-24 17:34:00,
2013-07-24 12:40:00,71.9,60.8,30.04,NNW,340,3.8,5.8,68,0.00,CLR,,0.00,WeatherDisplay:10.37,2013-07-24 17:40:00,
2013-07-24 12:45:00,72.5,59.6,30.04,ENE,67,1.8,3.5,64,0.00,CLR,,0.00,WeatherDisplay:10.37,2013-07-24 17:45:00,
2013-07-24 12:50:00,73.2,59.4,30.03,NE,56,3.9,5.8,62,0.00,CLR,,0.00,WeatherDisplay:10.37,2013-07-24 17:50:00,
2013-07-24 12:55:00,73.6,59.3,30.03,NE,51,5.7,8.1,61,0.00,CLR,,0.00,WeatherDisplay:10.37,2013-07-24 17:55:00,
2013-07-24 13:00:00,73.3,58.1,30.03,NE,54,2.7,5.8,59,0.00,CLR,,0.00,WeatherDisplay:10.37,2013-07-24 18:00:00,
2013-07-24 13:05:00,72.7,60.3,30.03,NNW,345,1.0,3.5,65,0.00,CLR,,0.00,WeatherDisplay:10.37,2013-07-24 18:05:00,
2013-07-24 13:10:00,72.3,59.0,30.03,NNE,30,1.0,4.0,63,0.00,CLR,,0.00,WeatherDisplay:10.37,2013-07-24 18:10:00,
2013-07-24 13:15:00,72.8,58.6,30.03,ENE,67,5.0,7.0,61,0.00,CLR,,0.00,WeatherDisplay:10.37,2013-07-24 18:15:00,
2013-07-24 13:20:00,73.0,57.3,30.03,ENE,75,1.8,4.0,58,0.00,CLR,,0.00,WeatherDisplay:10.37,2013-07-24 18:20:00,
2013-07-24 13:25:00,73.3,58.1,30.03,ENE,78,2.0,8.0,59,0.00,CLR,,0.00,WeatherDisplay:10.37,2013-07-24 18:25:00,
2013-07-24 13:30:00,73.6,60.2,30.03,NE,44,5.8,10.4,63,0.00,CLR,,0.00,WeatherDisplay:10.37,2013-07-24 18:30:00,
2013-07-24 13:35:00,73.3,59.0,30.03,ENE,58,3.8,5.8,61,0.00,CLR,,0.00,WeatherDisplay:10.37,2013-07-24 18:35:00,
2013-07-24 13:40:00,74.1,60.7,30.03,NE,55,2.0,5.0,63,0.00,CLR,,0.00,WeatherDisplay:10.37,2013-07-24 18:40:00,
2013-07-24 13:45:00,73.8,58.6,30.03,East,90,4.3,6.9,59,0.00,CLR,,0.00,WeatherDisplay:10.37,2013-07-24 18:45:00,
2013-07-24 13:50:00,73.6,59.8,30.03,NNE,30,2.2,3.5,62,0.00,CLR,,0.00,WeatherDisplay:10.37,2013-07-24 18:50:00,
2013-07-24 13:55:00,73.5,57.8,30.03,NE,50,4.1,5.8,58,0.00,CLR,,0.00,WeatherDisplay:10.37,2013-07-24 18:55:00,
2013-07-24 14:00:00,72.2,56.6,30.03,NE,53,0.9,2.3,58,0.00,CLR,,0.00,WeatherDisplay:10.37,2013-07-24 19:00:00,
2013-07-24 14:05:00,72.8,58.6,30.03,East,80,1.4,4.0,61,0.00,CLR,,0.00,WeatherDisplay:10.37,2013-07-24 19:05:00,
2013-07-24 14:11:00,72.6,57.4,30.03,NE,50,4.6,9.2,59,0.00,CLR,,0.00,WeatherDisplay:10.37,2013-07-24 19:11:00,
2013-07-24 14:16:00,72.0,57.8,30.03,ENE,64,3.3,3.5,61,0.00,CLR,,0.00,WeatherDisplay:10.37,2013-07-24 19:16:00,
2013-07-24 14:21:00,73.0,58.8,30.02,NE,54,3.1,3.5,61,0.00,CLR,,0.00,WeatherDisplay:10.37,2013-07-24 19:21:00,
2013-07-24 14:27:00,74.0,59.7,30.03,ENE,64,1.7,3.5,61,0.00,CLR,,0.00,WeatherDisplay:10.37,2013-07-24 19:27:00,
2013-07-24 14:33:00,73.6,57.9,30.03,NE,50,5.0,6.9,58,0.00,CLR,,0.00,WeatherDisplay:10.37,2013-07-24 19:33:00,
2013-07-24 14:38:00,72.3,58.1,30.02,NE,56,2.6,3.5,61,0.00,CLR,,0.00,WeatherDisplay:10.37,2013-07-24 19:38:00,
2013-07-24 14:43:00,72.8,59.0,30.02,NNE,16,2.2,3.0,62,0.00,CLR,,0.00,WeatherDisplay:10.37,2013-07-24 19:43:00,
2013-07-24 14:48:00,73.9,61.4,30.02,ENE,68,1.7,2.3,65,0.00,CLR,,0.00,WeatherDisplay:10.37,2013-07-24 19:48:00,
2013-07-24 14:53:00,74.7,58.9,30.02,NNE,18,1.1,2.3,58,0.00,CLR,,0.00,WeatherDisplay:10.37,2013-07-24 19:53:00,
2013-07-24 14:58:00,74.8,59.0,30.01,NNE,33,4.1,5.8,58,0.00,CLR,,0.00,WeatherDisplay:10.37,2013-07-24 19:58:00,
2013-07-24 15:03:00,73.8,59.5,30.01,NE,46,2.5,4.6,61,0.00,CLR,,0.00,WeatherDisplay:10.37,2013-07-24 20:03:00,
2013-07-24 15:08:00,73.9,57.2,30.01,ENE,69,3.0,4.6,56,0.00,CLR,,0.00,WeatherDisplay:10.37,2013-07-24 20:08:00,
2013-07-24 15:13:00,74.2,57.0,30.01,ENE,67,0.4,2.3,55,0.00,CLR,,0.00,WeatherDisplay:10.37,2013-07-24 20:13:00,
2013-07-24 15:18:00,74.8,62.2,30.01,SE,124,1.3,5.0,65,0.00,CLR,,0.00,WeatherDisplay:10.37,2013-07-24 20:18:00,
2013-07-24 15:23:00,75.9,60.5,30.01,East,98,1.8,3.5,59,0.00,CLR,,0.00,WeatherDisplay:10.37,2013-07-24 20:23:00,
2013-07-24 15:28:00,75.4,59.6,30.01,ENE,58,1.5,3.5,58,0.00,CLR,,0.00,WeatherDisplay:10.37,2013-07-24 20:28:00,
2013-07-24 15:33:00,74.6,58.4,30.00,NW,311,2.5,3.5,57,0.00,CLR,,0.00,WeatherDisplay:10.37,2013-07-24 20:33:00,
2013-07-24 15:39:00,75.0,57.2,30.00,North,11,1.0,2.3,54,0.00,CLR,,0.00,WeatherDisplay:10.37,2013-07-24 20:39:00,
2013-07-24 15:44:00,75.7,58.9,30.00,East,82,0.7,2.3,56,0.00,CLR,,0.00,WeatherDisplay:10.37,2013-07-24 20:44:00,
2013-07-24 15:49:00,76.2,58.9,30.01,NNE,22,2.5,3.5,55,0.00,CLR,,0.00,WeatherDisplay:10.37,2013-07-24 20:49:00,
2013-07-24 15:54:00,76.3,57.4,30.01,WNW,296,2.2,4.6,52,0.00,CLR,,0.00,WeatherDisplay:10.37,2013-07-24 20:54:00,
2013-07-24 15:59:00,76.2,59.4,30.01,NW,321,1.3,2.0,56,0.00,CLR,,0.00,WeatherDisplay:10.37,2013-07-24 20:59:00,
2013-07-24 16:04:00,76.6,58.2,30.01,NE,43,0.3,1.1,53,0.00,CLR,,0.00,WeatherDisplay:10.37,2013-07-24 21:04:00,
2013-07-24 16:09:00,76.7,58.8,30.01,ESE,105,2.2,3.5,54,0.00,CLR,,0.00,WeatherDisplay:10.37,2013-07-24 21:09:00,
2013-07-24 16:14:00,75.4,57.6,30.01,ENE,68,1.6,3.5,54,0.00,CLR,,0.00,WeatherDisplay:10.37,2013-07-24 21:14:00,
2013-07-24 16:20:00,74.2,57.0,30.01,NE,54,1.1,2.3,55,0.00,CLR,,0.00,WeatherDisplay:10.37,2013-07-24 21:20:00,
2013-07-24 16:25:00,74.3,57.6,30.01,NNE,23,1.6,2.3,56,0.00,CLR,,0.00,WeatherDisplay:10.37,2013-07-24 21:25:00,
2013-07-24 16:30:00,74.8,59.0,30.00,North,8,1.0,3.0,58,0.00,CLR,,0.00,WeatherDisplay:10.37,2013-07-24 21:30:00,
2013-07-24 16:35:00,74.9,58.1,30.00,NNW,339,1.4,3.5,56,0.00,CLR,,0.00,WeatherDisplay:10.37,2013-07-24 21:35:00,
2013-07-24 16:40:00,75.5,58.7,30.00,North,355,1.0,3.0,56,0.00,CLR,,0.00,WeatherDisplay:10.37,2013-07-24 21:40:00,
2013-07-24 16:45:00,74.8,59.5,30.01,NNW,343,0.0,3.0,59,0.00,CLR,,0.00,WeatherDisplay:10.37,2013-07-24 21:45:00,
2013-07-24 16:50:00,73.6,57.9,30.01,NNE,14,1.3,2.0,58,0.00,CLR,,0.00,WeatherDisplay:10.37,2013-07-24 21:50:00,
2013-07-24 16:55:00,73.4,58.7,30.00,NNE,16,1.0,2.3,60,0.00,CLR,,0.00,WeatherDisplay:10.37,2013-07-24 21:55:00,
2013-07-24 17:00:00,74.3,59.5,30.00,NE,45,0.2,1.1,60,0.00,CLR,,0.00,WeatherDisplay:10.37,2013-07-24 22:00:00,
2013-07-24 17:05:00,75.1,59.3,30.00,NNE,14,1.1,3.5,58,0.00,CLR,,0.00,WeatherDisplay:10.37,2013-07-24 22:05:00,
2013-07-24 17:10:00,75.5,58.7,30.01,NNE,13,2.3,3.5,56,0.00,CLR,,0.00,WeatherDisplay:10.37,2013-07-24 22:10:00,
2013-07-24 17:15:00,75.9,58.6,30.01,North,8,0.7,2.3,55,0.00,CLR,,0.00,WeatherDisplay:10.37,2013-07-24 22:15:00,
2013-07-24 17:20:00,76.2,58.3,30.01,West,259,0.3,2.3,54,0.00,CLR,,0.00,WeatherDisplay:10.37,2013-07-24 22:20:00,
2013-07-24 17:25:00,76.4,58.0,30.01,NNE,23,1.5,2.3,53,0.00,CLR,,0.00,WeatherDisplay:10.37,2013-07-24 22:25:00,
2013-07-24 17:30:00,76.5,58.6,30.01,North,8,1.6,3.5,54,0.00,CLR,,0.00,WeatherDisplay:10.37,2013-07-24 22:30:00,
2013-07-24 17:35:00,76.8,58.9,30.01,NW,316,0.2,1.1,54,0.00,CLR,,0.00,WeatherDisplay:10.37,2013-07-24 22:35:00,
2013-07-24 17:40:00,77.0,57.5,30.00,NW,309,0.2,1.1,51,0.00,CLR,,0.00,WeatherDisplay:10.37,2013-07-24 22:40:00,
2013-07-24 17:45:00,77.1,58.6,30.00,NNE,12,0.8,2.3,53,0.00,CLR,,0.00,WeatherDisplay:10.37,2013-07-24 22:45:00,
2013-07-24 17:51:00,76.8,57.8,30.00,North,8,1.2,2.3,52,0.00,CLR,,0.00,WeatherDisplay:10.37,2013-07-24 22:51:00,
2013-07-24 17:56:00,76.6,59.2,30.00,NE,51,0.7,2.3,55,0.00,CLR,,0.00,WeatherDisplay:10.37,2013-07-24 22:56:00,
2013-07-24 18:01:00,76.5,59.6,30.00,NNE,30,0.1,2.3,56,0.00,CLR,,0.00,WeatherDisplay:10.37,2013-07-24 23:01:00,
2013-07-24 18:06:00,76.8,58.4,30.00,WNW,293,1.2,2.3,53,0.00,CLR,,0.00,WeatherDisplay:10.37,2013-07-24 23:06:00,
2013-07-24 18:11:00,76.9,56.8,30.00,NNE,18,0.6,1.1,50,0.00,CLR,,0.00,WeatherDisplay:10.37,2013-07-24 23:11:00,
2013-07-24 18:16:00,76.9,58.5,30.00,NE,49,0.0,0.0,53,0.00,CLR,,0.00,WeatherDisplay:10.37,2013-07-24 23:16:00,
2013-07-24 18:21:00,76.7,57.2,30.00,NE,44,0.0,1.1,51,0.00,CLR,,0.00,WeatherDisplay:10.37,2013-07-24 23:21:00,
2013-07-24 18:26:00,77.1,59.7,30.00,SE,146,1.3,2.3,55,0.00,CLR,,0.00,WeatherDisplay:10.37,2013-07-24 23:26:00,
2013-07-24 18:31:00,77.0,58.6,30.00,SE,139,0.0,0.0,53,0.00,CLR,,0.00,WeatherDisplay:10.37,2013-07-24 23:31:00,
2013-07-24 18:36:00,77.8,58.8,30.00,ESE,123,0.5,1.1,52,0.00,CLR,,0.00,WeatherDisplay:10.37,2013-07-24 23:36:00,
2013-07-24 18:41:00,76.4,57.5,30.00,ENE,73,1.4,2.3,52,0.00,CLR,,0.00,WeatherDisplay:10.37,2013-07-24 23:41:00,
2013-07-24 18:46:00,75.7,57.4,30.00,ENE,73,0.7,1.1,53,0.00,CLR,,0.00,WeatherDisplay:10.37,2013-07-24 23:46:00,
2013-07-24 18:51:00,75.5,57.2,30.00,ENE,74,0.0,0.0,53,0.00,CLR,,0.00,WeatherDisplay:10.37,2013-07-24 23:51:00,
2013-07-24 18:56:00,75.7,58.4,30.00,ENE,73,0.0,0.0,55,0.00,CLR,,0.00,WeatherDisplay:10.37,2013-07-24 23:56:00,
2013-07-24 19:01:00,75.3,58.0,29.99,ENE,73,1.3,2.3,55,0.00,CLR,,0.00,WeatherDisplay:10.37,2013-07-25 00:01:00,
2013-07-24 19:06:00,74.2,58.5,30.00,ENE,74,0.4,2.3,58,0.00,CLR,,0.00,WeatherDisplay:10.37,2013-07-25 00:06:00,
2013-07-24 19:11:00,73.7,59.9,29.99,SE,129,0.8,1.1,62,0.00,CLR,,0.00,WeatherDisplay:10.37,2013-07-25 00:11:00,
2013-07-24 19:16:00,73.1,61.1,30.00,SE,128,0.0,0.0,66,0.00,CLR,,0.00,WeatherDisplay:10.37,2013-07-25 00:16:00,
2013-07-24 19:21:00,72.7,59.4,29.99,SE,128,0.0,0.0,63,0.00,CLR,,0.00,WeatherDisplay:10.37,2013-07-25 00:21:00,
2013-07-24 19:26:00,72.3,60.3,29.99,SE,128,0.0,0.0,66,0.00,CLR,,0.00,WeatherDisplay:10.37,2013-07-25 00:26:00,
2013-07-24 19:31:00,71.9,59.9,30.00,SE,127,0.0,0.0,66,0.00,CLR,,0.00,WeatherDisplay:10.37,2013-07-25 00:31:00,
2013-07-24 19:36:00,71.5,60.4,30.00,SE,127,0.0,1.1,68,0.00,CLR,,0.00,WeatherDisplay:10.37,2013-07-25 00:36:00,
2013-07-24 19:41:00,71.1,60.0,30.00,SE,127,0.2,0.0,68,0.00,CLR,,0.00,WeatherDisplay:10.37,2013-07-25 00:41:00,
2013-07-24 19:46:00,70.8,60.1,30.00,SE,125,0.0,0.0,69,0.00,CLR,,0.00,WeatherDisplay:10.37,2013-07-25 00:46:00,
2013-07-24 19:51:00,70.7,62.4,29.99,SE,125,0.0,0.0,75,0.00,CLR,,0.00,WeatherDisplay:10.37,2013-07-25 00:51:00,
2013-07-24 19:56:00,70.4,63.2,29.99,SE,126,0.0,0.0,78,0.00,CLR,,0.00,WeatherDisplay:10.37,2013-07-25 00:56:00,
2013-07-24 20:02:00,69.7,63.6,30.00,SE,125,0.0,0.0,81,0.00,CLR,,0.00,WeatherDisplay:10.37,2013-07-25 01:02:00,
2013-07-24 20:07:00,69.0,63.6,30.00,SE,126,0.0,0.0,83,0.00,CLR,,0.00,WeatherDisplay:10.37,2013-07-25 01:07:00,
2013-07-24 20:12:00,68.5,63.5,30.00,SE,125,0.0,0.0,84,0.00,CLR,,0.00,WeatherDisplay:10.37,2013-07-25 01:12:00,
2013-07-24 20:17:00,68.1,63.4,29.99,SE,125,0.0,0.0,85,0.00,CLR,,0.00,WeatherDisplay:10.37,2013-07-25 01:17:00,
2013-07-24 20:22:00,67.5,63.2,30.00,SE,125,0.0,0.0,86,0.00,CLR,,0.00,WeatherDisplay:10.37,2013-07-25 01:22:00,
2013-07-24 20:27:00,66.7,62.7,30.00,SE,126,0.0,0.0,87,0.00,CLR,,0.00,WeatherDisplay:10.37,2013-07-25 01:27:00,
2013-07-24 20:32:00,65.9,62.2,30.00,SE,126,0.0,0.0,88,0.00,CLR,,0.00,WeatherDisplay:10.37,2013-07-25 01:32:00,
2013-07-24 20:37:00,65.3,61.7,30.00,SE,125,0.0,0.0,88,0.00,CLR,,0.00,WeatherDisplay:10.37,2013-07-25 01:37:00,
2013-07-24 20:42:00,64.8,61.5,30.00,SE,125,0.0,0.0,89,0.00,CLR,,0.00,WeatherDisplay:10.37,2013-07-25 01:42:00,
2013-07-24 20:47:00,64.2,60.9,30.00,SE,125,0.0,0.0,89,0.00,CLR,,0.00,WeatherDisplay:10.37,2013-07-25 01:47:00,
2013-07-24 20:52:00,63.7,60.4,30.00,SE,125,0.0,0.0,89,0.00,CLR,,0.00,WeatherDisplay:10.37,2013-07-25 01:52:00,
2013-07-24 20:57:00,63.1,59.8,30.00,SE,125,0.0,0.0,89,0.00,CLR,,0.00,WeatherDisplay:10.37,2013-07-25 01:57:00,
2013-07-24 21:02:00,62.7,59.7,30.00,SE,125,0.0,0.0,90,0.00,,,0.00,WeatherDisplay:10.37,2013-07-25 02:02:00,
2013-07-24 21:07:00,62.3,59.3,30.00,SE,125,0.0,0.0,90,0.00,,,0.00,WeatherDisplay:10.37,2013-07-25 02:07:00,
2013-07-24 21:12:00,62.0,59.3,30.00,SE,125,0.0,0.0,91,0.00,,,0.00,WeatherDisplay:10.37,2013-07-25 02:12:00,
2013-07-24 21:17:00,61.6,58.9,30.00,SE,125,0.0,0.0,91,0.00,,,0.00,WeatherDisplay:10.37,2013-07-25 02:17:00,
2013-07-24 21:22:00,61.4,59.1,30.00,SE,125,0.0,0.0,92,0.00,,,0.00,WeatherDisplay:10.37,2013-07-25 02:22:00,
2013-07-24 21:28:00,61.2,58.9,30.00,SE,125,0.0,0.0,92,0.00,,,0.00,WeatherDisplay:10.37,2013-07-25 02:28:00,
2013-07-24 21:33:00,61.1,58.8,30.01,SE,125,0.0,0.0,92,0.00,,,0.00,WeatherDisplay:10.37,2013-07-25 02:33:00,
2013-07-24 21:38:00,61.1,58.8,30.01,SE,125,0.0,0.0,92,0.00,,,0.00,WeatherDisplay:10.37,2013-07-25 02:38:00,
2013-07-24 21:43:00,61.0,58.7,30.01,SE,125,0.0,0.0,92,0.00,,,0.00,WeatherDisplay:10.37,2013-07-25 02:43:00,
2013-07-24 21:48:00,60.9,58.6,30.01,SE,125,0.0,0.0,92,0.00,,,0.00,WeatherDisplay:10.37,2013-07-25 02:48:00,
2013-07-24 21:53:00,60.8,58.5,30.01,SE,125,0.0,0.0,92,0.00,,,0.00,WeatherDisplay:10.37,2013-07-25 02:53:00,
2013-07-24 21:58:00,60.7,58.7,30.01,SE,125,0.0,0.0,93,0.00,,,0.00,WeatherDisplay:10.37,2013-07-25 02:58:00,
2013-07-24 22:03:00,60.5,58.5,30.01,SE,125,0.0,1.1,93,0.00,,,0.00,WeatherDisplay:10.37,2013-07-25 03:03:00,
2013-07-24 22:08:00,60.3,58.3,30.01,SE,125,0.0,0.0,93,0.00,,,0.00,WeatherDisplay:10.37,2013-07-25 03:08:00,
2013-07-24 22:13:00,60.3,58.3,30.02,SE,125,0.0,0.0,93,0.00,,,0.00,WeatherDisplay:10.37,2013-07-25 03:13:00,
2013-07-24 22:18:00,60.2,58.2,30.02,SE,125,0.0,0.0,93,0.00,,,0.00,WeatherDisplay:10.37,2013-07-25 03:18:00,
2013-07-24 22:23:00,60.2,57.9,30.02,SE,125,0.0,0.0,92,0.00,,,0.00,WeatherDisplay:10.37,2013-07-25 03:23:00,
2013-07-24 22:29:00,60.2,58.2,30.02,SE,125,0.0,0.0,93,0.00,,,0.00,WeatherDisplay:10.37,2013-07-25 03:29:00,
2013-07-24 22:34:00,60.4,58.4,30.02,SE,125,0.0,0.0,93,0.00,,,0.00,WeatherDisplay:10.37,2013-07-25 03:34:00,
2013-07-24 22:39:00,59.7,57.1,30.03,WSW,250,0.0,0.0,91,0.00,,,0.00,WeatherDisplay:10.37,2013-07-25 03:39:00,
2013-07-24 22:44:00,59.3,57.3,30.03,WSW,250,0.0,0.0,93,0.00,,,0.00,WeatherDisplay:10.37,2013-07-25 03:44:00,
2013-07-24 22:50:00,59.1,57.4,30.03,WSW,250,0.0,0.0,94,0.00,,,0.00,WeatherDisplay:10.37,2013-07-25 03:50:00,
2013-07-24 22:55:00,58.9,57.2,30.03,WSW,250,0.0,0.0,94,0.00,,,0.00,WeatherDisplay:10.37,2013-07-25 03:55:00,
2013-07-24 23:00:00,58.7,57.0,30.03,WSW,250,0.0,0.0,94,0.00,,,0.00,WeatherDisplay:10.37,2013-07-25 04:00:00,
2013-07-24 23:01:00,58.7,57.0,30.03,WSW,250,0.0,0.0,94,0.00,,,0.00,WeatherDisplay:10.37,2013-07-25 04:01:00,
2013-07-24 23:02:00,58.7,57.3,30.03,WSW,250,0.0,0.0,95,0.00,,,0.00,WeatherDisplay:10.37,2013-07-25 04:02:00,
2013-07-24 23:03:00,58.7,57.3,30.03,WSW,250,0.0,0.0,95,0.00,,,0.00,WeatherDisplay:10.37,2013-07-25 04:03:00,
2013-07-24 23:08:00,58.4,57.0,30.03,WSW,250,0.0,0.0,95,0.00,,,0.00,WeatherDisplay:10.37,2013-07-25 04:08:00,
2013-07-24 23:13:00,58.2,56.8,30.02,WSW,250,0.0,0.0,95,0.00,,,0.00,WeatherDisplay:10.37,2013-07-25 04:13:00,
2013-07-24 23:18:00,58.0,56.6,30.03,WSW,250,0.0,0.0,95,0.00,,,0.00,WeatherDisplay:10.37,2013-07-25 04:18:00,
2013-07-24 23:23:00,57.8,56.4,30.03,WSW,250,0.0,0.0,95,0.00,,,0.00,WeatherDisplay:10.37,2013-07-25 04:23:00,
2013-07-24 23:28:00,57.8,56.4,30.02,WSW,250,0.0,0.0,95,0.00,,,0.00,WeatherDisplay:10.37,2013-07-25 04:28:00,
2013-07-24 23:33:00,57.7,56.6,30.02,WSW,250,0.0,0.0,96,0.00,,,0.00,WeatherDisplay:10.37,2013-07-25 04:33:00,
2013-07-24 23:38:00,57.9,56.8,30.02,WSW,250,0.0,0.0,96,0.00,,,0.00,WeatherDisplay:10.37,2013-07-25 04:38:00,
2013-07-24 23:43:00,57.9,56.8,30.02,WSW,250,0.0,0.0,96,0.00,,,0.00,WeatherDisplay:10.37,2013-07-25 04:43:00,
2013-07-24 23:48:00,57.8,56.7,30.03,WSW,250,0.0,0.0,96,0.00,,,0.00,WeatherDisplay:10.37,2013-07-25 04:48:00,
2013-07-24 23:53:00,57.6,56.5,30.02,WSW,250,0.0,0.0,96,0.00,,,0.00,WeatherDisplay:10.37,2013-07-25 04:53:00,
2013-07-24 23:58:00,57.5,56.4,30.02,WSW,250,0.0,0.0,96,0.00,,,0.00,WeatherDisplay:10.37,2013-07-25 04:58:00,